createdAt,value
2023-03-29T00:00:17.625Z,98810.91
2023-03-29T00:01:35.797Z,98810.91
2023-03-29T00:02:37.691Z,98802.47
2023-03-29T00:03:39.309Z,98805.38
2023-03-29T00:04:40.677Z,98796.69
2023-03-29T00:05:41.954Z,98783.25
2023-03-29T00:06:43.256Z,98786.91
2023-03-29T00:07:44.627Z,98788.00
2023-03-29T00:08:45.871Z,98789.06
2023-03-29T00:09:47.095Z,98792.75
2023-03-29T00:10:48.604Z,98789.56
2023-03-29T00:11:49.846Z,98796.94
2023-03-29T00:12:51.116Z,98801.94
2023-03-29T00:13:52.586Z,98793.53
2023-03-29T00:14:53.861Z,98786.66
2023-03-29T00:15:55.131Z,98789.56
2023-03-29T00:16:56.646Z,98793.78
2023-03-29T00:17:57.971Z,98795.91
2023-03-29T00:18:59.347Z,98790.09
2023-03-29T00:20:00.549Z,98786.69
2023-03-29T00:21:02.160Z,98790.66
2023-03-29T00:22:04.060Z,98779.31
2023-03-29T00:23:05.258Z,98780.38
2023-03-29T00:24:06.479Z,98770.88
2023-03-29T00:25:08.591Z,98773.00
2023-03-29T00:26:09.868Z,98775.91
2023-03-29T00:27:11.220Z,98770.09
2023-03-29T00:28:12.559Z,98773.28
2023-03-29T00:29:14.004Z,98776.41
2023-03-29T00:30:15.542Z,98774.84
2023-03-29T00:31:17.920Z,98775.63
2023-03-29T00:32:19.648Z,98777.75
2023-03-29T00:33:21.218Z,98774.56
2023-03-29T00:34:23.478Z,98777.22
2023-03-29T00:35:24.803Z,98774.84
2023-03-29T00:36:26.524Z,98774.06
2023-03-29T00:37:28.340Z,98772.72
2023-03-29T00:38:30.044Z,98775.34
2023-03-29T00:39:31.315Z,98774.31
2023-03-29T00:40:33.051Z,98770.09
2023-03-29T00:41:34.412Z,98772.75
2023-03-29T00:42:35.655Z,98763.25
2023-03-29T00:43:55.749Z,98765.13
2023-03-29T00:45:00.098Z,98763.78
2023-03-29T00:46:01.373Z,98768.53
2023-03-29T00:47:03.367Z,98762.75
2023-03-29T00:48:08.917Z,98760.91
2023-03-29T00:49:11.860Z,98769.31
2023-03-29T00:50:17.081Z,98760.34
2023-03-29T00:51:20.047Z,98755.38
2023-03-29T00:52:21.760Z,98761.69
2023-03-29T00:53:32.173Z,98761.13
2023-03-29T00:54:34.184Z,98755.38
2023-03-29T00:55:37.381Z,98754.84
2023-03-29T00:56:40.139Z,98749.81
2023-03-29T00:57:42.624Z,98753.25
2023-03-29T00:58:47.573Z,98755.88
2023-03-29T00:59:50.224Z,98746.94
2023-03-29T01:00:57.554Z,98744.81
2023-03-29T01:02:06.317Z,98735.34
2023-03-29T01:03:11.638Z,98734.78
2023-03-29T01:04:23.560Z,98742.97
2023-03-29T01:05:34.198Z,98732.44
2023-03-29T01:06:36.940Z,98729.00
2023-03-29T01:07:43.030Z,98731.38
2023-03-29T01:08:47.073Z,98741.66
2023-03-29T01:09:53.051Z,98734.28
2023-03-29T01:10:56.540Z,98728.75
2023-03-29T01:12:01.161Z,98730.88
2023-03-29T01:13:06.741Z,98734.28
2023-03-29T01:14:12.067Z,98731.66
2023-03-29T01:15:24.887Z,98735.06
2023-03-29T01:16:27.718Z,98716.38
2023-03-29T01:17:29.358Z,98724.25
2023-03-29T01:18:32.387Z,98721.13
2023-03-29T01:19:40.389Z,98715.06
2023-03-29T01:21:00.777Z,98713.19
2023-03-29T01:22:11.173Z,98711.38
2023-03-29T01:23:22.931Z,98705.31
2023-03-29T01:24:36.986Z,98710.31
2023-03-29T01:25:38.194Z,98710.31
2023-03-29T01:26:39.520Z,98703.75
2023-03-29T01:27:49.117Z,98703.22
2023-03-29T01:29:03.338Z,98701.66
2023-03-29T01:30:09.073Z,98700.06
2023-03-29T01:31:24.113Z,98688.72
2023-03-29T01:32:30.204Z,98692.69
2023-03-29T01:33:34.172Z,98692.16
2023-03-29T01:34:42.949Z,98689.03
2023-03-29T01:35:47.859Z,98690.03
2023-03-29T01:36:56.141Z,98680.56
2023-03-29T01:38:04.124Z,98677.94
2023-03-29T01:39:06.429Z,98670.28
2023-03-29T01:40:08.254Z,98669.78
2023-03-29T01:41:12.208Z,98677.16
2023-03-29T01:42:36.133Z,98673.75
2023-03-29T01:43:40.395Z,98664.78
2023-03-29T01:44:49.510Z,98672.94
2023-03-29T01:45:56.763Z,98665.34
2023-03-29T01:47:18.426Z,98655.31
2023-03-29T01:48:25.407Z,98652.41
2023-03-29T01:49:44.897Z,98646.34
2023-03-29T01:50:46.151Z,98648.75
2023-03-29T01:52:22.702Z,98638.50
2023-03-29T01:53:50.877Z,98646.63
2023-03-29T01:55:00.268Z,98646.91
2023-03-29T01:56:07.561Z,98638.50
2023-03-29T01:57:09.912Z,98647.19
2023-03-29T01:58:13.026Z,98642.19
2023-03-29T01:59:17.197Z,98636.94
2023-03-29T02:00:21.077Z,98639.53
2023-03-29T02:01:25.964Z,98640.63
2023-03-29T02:02:29.086Z,98644.84
2023-03-29T02:03:31.222Z,98649.34
2023-03-29T02:04:34.411Z,98646.69
2023-03-29T02:05:36.824Z,98643.81
2023-03-29T02:06:38.974Z,98643.03
2023-03-29T02:07:41.232Z,98643.31
2023-03-29T02:08:43.325Z,98640.13
2023-03-29T02:09:45.312Z,98637.78
2023-03-29T02:10:47.076Z,98637.50
2023-03-29T02:11:49.898Z,98636.44
2023-03-29T02:12:51.101Z,98641.19
2023-03-29T02:13:52.733Z,98630.94
2023-03-29T02:14:54.008Z,98627.75
2023-03-29T02:15:55.437Z,98628.28
2023-03-29T02:16:56.718Z,98628.81
2023-03-29T02:17:58.371Z,98633.03
2023-03-29T02:18:59.763Z,98635.41
2023-03-29T02:20:08.456Z,98629.88
2023-03-29T02:21:13.652Z,98634.38
2023-03-29T02:22:16.805Z,98623.81
2023-03-29T02:23:24.268Z,98620.41
2023-03-29T02:24:26.080Z,98628.03
2023-03-29T02:25:27.881Z,98626.97
2023-03-29T02:26:29.178Z,98629.34
2023-03-29T02:27:30.858Z,98620.94
2023-03-29T02:28:32.559Z,98626.47
2023-03-29T02:29:33.817Z,98619.63
2023-03-29T02:30:43.843Z,98616.44
2023-03-29T02:32:05.356Z,98617.25
2023-03-29T02:33:10.873Z,98626.19
2023-03-29T02:34:24.834Z,98623.06
2023-03-29T02:35:38.905Z,98621.44
2023-03-29T02:36:43.242Z,98619.09
2023-03-29T02:37:46.866Z,98626.97
2023-03-29T02:38:48.212Z,98624.09
2023-03-29T02:39:50.922Z,98623.84
2023-03-29T02:40:52.349Z,98623.34
2023-03-29T02:41:54.600Z,98616.78
2023-03-29T02:42:57.414Z,98620.44
2023-03-29T02:43:59.771Z,98614.13
2023-03-29T02:45:02.371Z,98609.66
2023-03-29T02:46:05.551Z,98596.53
2023-03-29T02:47:19.409Z,98590.72
2023-03-29T02:48:22.007Z,98589.44
2023-03-29T02:49:23.670Z,98592.34
2023-03-29T02:50:28.383Z,98585.75
2023-03-29T02:51:32.304Z,98587.59
2023-03-29T02:52:38.825Z,98585.75
2023-03-29T02:53:42.094Z,98592.06
2023-03-29T02:54:45.214Z,98580.75
2023-03-29T02:55:46.525Z,98573.91
2023-03-29T02:56:58.415Z,98577.56
2023-03-29T02:58:00.022Z,98570.25
2023-03-29T02:59:01.352Z,98570.25
2023-03-29T03:00:02.655Z,98564.69
2023-03-29T03:01:04.536Z,98563.91
2023-03-29T03:02:06.369Z,98566.03
2023-03-29T03:03:08.469Z,98565.22
2023-03-29T03:04:10.499Z,98570.50
2023-03-29T03:05:11.834Z,98566.00
2023-03-29T03:06:13.779Z,98565.75
2023-03-29T03:07:15.029Z,98558.13
2023-03-29T03:08:16.264Z,98550.78
2023-03-29T03:09:17.804Z,98553.66
2023-03-29T03:10:21.164Z,98556.81
2023-03-29T03:11:22.413Z,98554.94
2023-03-29T03:12:23.645Z,98558.09
2023-03-29T03:13:24.926Z,98556.00
2023-03-29T03:14:26.261Z,98566.81
2023-03-29T03:15:27.625Z,98555.75
2023-03-29T03:16:29.002Z,98553.38
2023-03-29T03:17:30.371Z,98547.03
2023-03-29T03:18:31.625Z,98561.00
2023-03-29T03:19:32.859Z,98548.91
2023-03-29T03:20:34.258Z,98552.03
2023-03-29T03:21:35.911Z,98552.03
2023-03-29T03:22:37.135Z,98555.72
2023-03-29T03:23:38.501Z,98556.28
2023-03-29T03:24:41.379Z,98562.56
2023-03-29T03:25:44.639Z,98564.97
2023-03-29T03:26:46.000Z,98556.00
2023-03-29T03:27:48.379Z,98551.53
2023-03-29T03:28:49.683Z,98555.50
2023-03-29T03:30:11.112Z,98559.94
2023-03-29T03:31:26.438Z,98562.56
2023-03-29T03:32:51.302Z,98562.56
2023-03-29T03:34:11.090Z,98558.09
2023-03-29T03:35:20.605Z,98552.03
2023-03-29T03:36:21.806Z,98558.88
2023-03-29T03:37:23.036Z,98561.75
2023-03-29T03:38:24.326Z,98563.34
2023-03-29T03:39:31.358Z,98559.94
2023-03-29T03:40:32.688Z,98551.75
2023-03-29T03:41:34.336Z,98550.41
2023-03-29T03:42:35.669Z,98551.47
2023-03-29T03:43:36.905Z,98552.53
2023-03-29T03:44:38.169Z,98547.28
2023-03-29T03:45:56.052Z,98559.09
2023-03-29T03:46:59.104Z,98559.38
2023-03-29T03:48:00.402Z,98563.84
2023-03-29T03:49:15.178Z,98556.47
2023-03-29T03:50:17.832Z,98560.69
2023-03-29T03:51:19.330Z,98558.03
2023-03-29T03:52:20.724Z,98564.59
2023-03-29T03:53:22.436Z,98562.75
2023-03-29T03:54:42.249Z,98558.56
2023-03-29T03:56:02.013Z,98560.13
2023-03-29T03:57:08.321Z,98553.56
2023-03-29T03:58:18.112Z,98561.72
2023-03-29T03:59:19.525Z,98556.19
2023-03-29T04:00:37.799Z,98556.19
2023-03-29T04:01:54.866Z,98558.03
2023-03-29T04:02:57.913Z,98566.72
2023-03-29T04:03:59.420Z,98562.22
2023-03-29T04:05:01.285Z,98571.19
2023-03-29T04:06:07.455Z,98569.63
2023-03-29T04:07:28.930Z,98561.19
2023-03-29T04:08:43.455Z,98575.66
2023-03-29T04:09:50.670Z,98571.69
2023-03-29T04:11:04.181Z,98566.72
2023-03-29T04:12:11.248Z,98571.69
2023-03-29T04:13:14.336Z,98566.44
2023-03-29T04:14:35.626Z,98569.06
2023-03-29T04:15:52.001Z,98578.03
2023-03-29T04:16:54.474Z,98570.41
2023-03-29T04:18:18.656Z,98574.59
2023-03-29T04:19:25.943Z,98577.25
2023-03-29T04:20:27.595Z,98575.41
2023-03-29T04:21:29.162Z,98569.84
2023-03-29T04:22:30.499Z,98568.28
2023-03-29T04:23:32.959Z,98573.25
2023-03-29T04:24:34.361Z,98575.13
2023-03-29T04:25:56.225Z,98575.91
2023-03-29T04:27:12.487Z,98581.94
2023-03-29T04:28:13.702Z,98572.75
2023-03-29T04:29:26.040Z,98577.50
2023-03-29T04:30:35.600Z,98572.72
2023-03-29T04:31:45.759Z,98579.06
2023-03-29T04:32:47.150Z,98571.16
2023-03-29T04:33:48.524Z,98575.38
2023-03-29T04:34:50.301Z,98574.59
2023-03-29T04:35:51.633Z,98577.22
2023-03-29T04:36:53.692Z,98580.63
2023-03-29T04:37:57.996Z,98578.50
2023-03-29T04:38:59.265Z,98573.25
2023-03-29T04:40:01.390Z,98578.50
2023-03-29T04:41:09.234Z,98576.13
2023-03-29T04:42:28.291Z,98576.91
2023-03-29T04:43:29.548Z,98581.09
2023-03-29T04:44:41.016Z,98580.06
2023-03-29T04:45:43.468Z,98574.53
2023-03-29T04:46:49.550Z,98570.31
2023-03-29T04:47:50.814Z,98575.31
2023-03-29T04:48:53.640Z,98574.25
2023-03-29T04:50:03.948Z,98580.56
2023-03-29T04:51:12.729Z,98578.72
2023-03-29T04:52:14.725Z,98570.84
2023-03-29T04:53:16.043Z,98581.09
2023-03-29T04:54:18.500Z,98575.28
2023-03-29T04:55:43.153Z,98573.44
2023-03-29T04:56:48.448Z,98579.22
2023-03-29T04:58:09.238Z,98569.50
2023-03-29T04:59:13.610Z,98567.63
2023-03-29T05:00:15.382Z,98570.53
2023-03-29T05:01:35.750Z,98582.63
2023-03-29T05:02:37.066Z,98569.47
2023-03-29T05:03:38.564Z,98587.88
2023-03-29T05:04:49.201Z,98585.25
2023-03-29T05:05:51.762Z,98580.50
2023-03-29T05:06:53.076Z,98589.19
2023-03-29T05:07:54.339Z,98583.66
2023-03-29T05:09:00.865Z,98578.38
2023-03-29T05:10:19.067Z,98581.81
2023-03-29T05:11:20.449Z,98584.16
2023-03-29T05:12:21.802Z,98583.38
2023-03-29T05:13:27.488Z,98580.47
2023-03-29T05:14:28.896Z,98583.09
2023-03-29T05:15:30.903Z,98592.31
2023-03-29T05:16:32.164Z,98585.97
2023-03-29T05:17:34.541Z,98581.50
2023-03-29T05:18:41.600Z,98575.16
2023-03-29T05:19:44.158Z,98581.50
2023-03-29T05:20:45.377Z,98579.38
2023-03-29T05:21:50.723Z,98580.97
2023-03-29T05:22:56.180Z,98582.81
2023-03-29T05:24:16.630Z,98576.47
2023-03-29T05:25:36.443Z,98580.69
2023-03-29T05:26:37.933Z,98571.72
2023-03-29T05:27:39.211Z,98575.91
2023-03-29T05:28:43.513Z,98579.34
2023-03-29T05:29:44.844Z,98572.25
2023-03-29T05:31:04.335Z,98571.16
2023-03-29T05:32:07.752Z,98579.06
2023-03-29T05:33:09.121Z,98566.97
2023-03-29T05:34:10.465Z,98575.88
2023-03-29T05:35:16.479Z,98574.84
2023-03-29T05:36:18.830Z,98573.50
2023-03-29T05:37:23.171Z,98572.41
2023-03-29T05:38:32.058Z,98571.88
2023-03-29T05:39:35.711Z,98576.88
2023-03-29T05:40:38.926Z,98571.06
2023-03-29T05:42:08.537Z,98570.00
2023-03-29T05:43:22.992Z,98570.25
2023-03-29T05:44:24.355Z,98569.97
2023-03-29T05:45:31.285Z,98564.44
2023-03-29T05:46:32.686Z,98573.91
2023-03-29T05:47:37.088Z,98574.41
2023-03-29T05:48:38.924Z,98567.03
2023-03-29T05:49:40.285Z,98579.91
2023-03-29T05:50:48.868Z,98580.41
2023-03-29T05:51:50.845Z,98577.78
2023-03-29T05:52:52.264Z,98583.84
2023-03-29T05:53:53.537Z,98579.63
2023-03-29T05:54:55.307Z,98577.78
2023-03-29T05:55:56.631Z,98588.06
2023-03-29T05:57:00.351Z,98591.22
2023-03-29T05:58:01.686Z,98590.13
2023-03-29T05:59:06.394Z,98585.94
2023-03-29T06:00:07.919Z,98585.16
2023-03-29T06:01:14.041Z,98591.22
2023-03-29T06:02:44.506Z,98597.53
2023-03-29T06:03:46.514Z,98598.34
2023-03-29T06:04:48.399Z,98599.91
2023-03-29T06:06:00.010Z,98601.75
2023-03-29T06:07:01.336Z,98599.41
2023-03-29T06:08:03.132Z,98606.25
2023-03-29T06:09:23.149Z,98604.66
2023-03-29T06:10:33.283Z,98607.31
2023-03-29T06:11:48.480Z,98600.97
2023-03-29T06:13:19.153Z,98605.75
2023-03-29T06:14:20.502Z,98602.28
2023-03-29T06:15:27.648Z,98607.56
2023-03-29T06:16:34.749Z,98596.25
2023-03-29T06:17:36.295Z,98598.63
2023-03-29T06:18:37.580Z,98600.19
2023-03-29T06:19:38.888Z,98595.97
2023-03-29T06:20:40.158Z,98596.75
2023-03-29T06:21:46.755Z,98600.19
2023-03-29T06:22:52.723Z,98602.53
2023-03-29T06:23:54.097Z,98608.34
2023-03-29T06:24:56.124Z,98602.25
2023-03-29T06:26:01.424Z,98605.69
2023-03-29T06:27:02.963Z,98605.41
2023-03-29T06:28:05.189Z,98602.78
2023-03-29T06:29:08.584Z,98599.06
2023-03-29T06:30:10.886Z,98601.44
2023-03-29T06:31:12.154Z,98600.38
2023-03-29T06:32:14.309Z,98602.75
2023-03-29T06:33:22.453Z,98594.53
2023-03-29T06:34:28.849Z,98604.84
2023-03-29T06:36:02.432Z,98593.72
2023-03-29T06:37:05.049Z,98604.78
2023-03-29T06:38:06.620Z,98608.22
2023-03-29T06:39:27.388Z,98616.91
2023-03-29T06:40:47.841Z,98610.56
2023-03-29T06:41:50.019Z,98598.16
2023-03-29T06:42:59.031Z,98601.31
2023-03-29T06:44:22.113Z,98613.16
2023-03-29T06:45:33.509Z,98601.28
2023-03-29T06:46:37.707Z,98608.63
2023-03-29T06:47:42.918Z,98612.84
2023-03-29T06:48:44.157Z,98614.44
2023-03-29T06:49:45.608Z,98616.78
2023-03-29T06:51:07.259Z,98607.50
2023-03-29T06:52:08.836Z,98614.09
2023-03-29T06:53:10.320Z,98611.97
2023-03-29T06:54:13.493Z,98614.34
2023-03-29T06:55:25.978Z,98612.19
2023-03-29T06:56:28.819Z,98615.34
2023-03-29T06:57:43.040Z,98616.34
2023-03-29T06:58:44.337Z,98613.94
2023-03-29T07:00:01.697Z,98616.81
2023-03-29T07:01:28.734Z,98620.53
2023-03-29T07:02:56.745Z,98625.47
2023-03-29T07:03:57.973Z,98621.97
2023-03-29T07:05:05.396Z,98620.66
2023-03-29T07:06:11.872Z,98624.81
2023-03-29T07:07:15.489Z,98621.59
2023-03-29T07:08:16.733Z,98618.09
2023-03-29T07:09:29.376Z,98619.34
2023-03-29T07:10:51.304Z,98618.50
2023-03-29T07:11:52.656Z,98616.59
2023-03-29T07:12:57.920Z,98622.13
2023-03-29T07:13:59.426Z,98616.53
2023-03-29T07:15:01.468Z,98617.56
2023-03-29T07:16:22.885Z,98623.25
2023-03-29T07:17:44.448Z,98619.78
2023-03-29T07:18:45.911Z,98620.78
2023-03-29T07:19:55.916Z,98625.78
2023-03-29T07:21:12.204Z,98621.78
2023-03-29T07:22:13.846Z,98628.09
2023-03-29T07:23:25.416Z,98619.31
2023-03-29T07:24:26.715Z,98626.66
2023-03-29T07:25:28.249Z,98630.31
2023-03-29T07:26:30.178Z,98623.69
2023-03-29T07:27:32.578Z,98629.16
2023-03-29T07:28:34.059Z,98628.59
2023-03-29T07:29:37.162Z,98632.53
2023-03-29T07:30:38.432Z,98626.97
2023-03-29T07:31:51.660Z,98630.88
2023-03-29T07:33:13.194Z,98634.81
2023-03-29T07:34:20.559Z,98637.69
2023-03-29T07:35:21.849Z,98636.31
2023-03-29T07:36:23.182Z,98640.25
2023-03-29T07:37:25.002Z,98625.47
2023-03-29T07:38:27.522Z,98639.13
2023-03-29T07:39:35.229Z,98636.69
2023-03-29T07:40:57.033Z,98635.06
2023-03-29T07:42:18.564Z,98641.31
2023-03-29T07:43:20.662Z,98639.97
2023-03-29T07:44:22.125Z,98642.31
2023-03-29T07:45:26.594Z,98641.75
2023-03-29T07:46:34.169Z,98642.75
2023-03-29T07:47:35.450Z,98655.91
2023-03-29T07:48:37.206Z,98651.59
2023-03-29T07:49:41.336Z,98653.66
2023-03-29T07:50:42.704Z,98648.59
2023-03-29T07:51:43.986Z,98651.72
2023-03-29T07:52:48.175Z,98653.00
2023-03-29T07:53:49.891Z,98651.38
2023-03-29T07:55:13.070Z,98652.84
2023-03-29T07:56:27.681Z,98645.59
2023-03-29T07:57:51.926Z,98645.53
2023-03-29T07:58:53.242Z,98648.06
2023-03-29T07:59:54.504Z,98645.66
2023-03-29T08:01:00.921Z,98649.00
2023-03-29T08:02:21.503Z,98640.47
2023-03-29T08:03:25.912Z,98638.00
2023-03-29T08:04:27.208Z,98641.38
2023-03-29T08:05:47.024Z,98639.69
2023-03-29T08:06:49.933Z,98641.75
2023-03-29T08:07:52.092Z,98646.19
2023-03-29T08:09:01.094Z,98648.25
2023-03-29T08:10:03.328Z,98636.88
2023-03-29T08:11:27.527Z,98646.50
2023-03-29T08:12:35.469Z,98638.72
2023-03-29T08:13:36.808Z,98645.53
2023-03-29T08:14:56.509Z,98642.00
2023-03-29T08:16:08.734Z,98646.13
2023-03-29T08:17:14.577Z,98640.22
2023-03-29T08:18:21.368Z,98640.63
2023-03-29T08:19:22.653Z,98644.44
2023-03-29T08:20:35.296Z,98641.41
2023-03-29T08:21:38.321Z,98633.81
2023-03-29T08:22:39.774Z,98636.09
2023-03-29T08:23:58.360Z,98635.88
2023-03-29T08:25:04.878Z,98639.97
2023-03-29T08:26:10.845Z,98638.47
2023-03-29T08:27:13.258Z,98630.88
2023-03-29T08:28:14.514Z,98641.06
2023-03-29T08:29:20.884Z,98639.38
2023-03-29T08:30:22.206Z,98645.06
2023-03-29T08:31:24.393Z,98641.22
2023-03-29T08:32:26.331Z,98642.66
2023-03-29T08:33:27.596Z,98643.31
2023-03-29T08:34:39.818Z,98642.91
2023-03-29T08:35:55.444Z,98644.53
2023-03-29T08:37:02.616Z,98645.19
2023-03-29T08:38:12.214Z,98638.00
2023-03-29T08:39:13.517Z,98650.78
2023-03-29T08:40:21.451Z,98644.53
2023-03-29T08:41:37.839Z,98645.44
2023-03-29T08:42:53.935Z,98648.09
2023-03-29T08:44:05.950Z,98644.66
2023-03-29T08:45:28.571Z,98649.78
2023-03-29T08:46:38.781Z,98652.72
2023-03-29T08:48:11.786Z,98651.94
2023-03-29T08:49:14.866Z,98649.59
2023-03-29T08:50:17.676Z,98645.56
2023-03-29T08:51:25.872Z,98639.94
2023-03-29T08:52:32.317Z,98640.41
2023-03-29T08:53:46.419Z,98638.25
2023-03-29T08:54:55.588Z,98636.56
2023-03-29T08:55:58.937Z,98636.84
2023-03-29T08:57:25.532Z,98630.63
2023-03-29T08:58:32.184Z,98630.81
2023-03-29T08:59:33.854Z,98630.88
2023-03-29T09:00:41.301Z,98630.13
2023-03-29T09:01:43.327Z,98630.47
2023-03-29T09:02:45.550Z,98626.41
2023-03-29T09:03:56.070Z,98629.13
2023-03-29T09:05:25.666Z,98626.72
2023-03-29T09:06:32.354Z,98624.88
2023-03-29T09:07:47.533Z,98619.75
2023-03-29T09:08:50.836Z,98627.56
2023-03-29T09:09:54.272Z,98620.53
2023-03-29T09:11:21.876Z,98630.41
2023-03-29T09:12:36.677Z,98624.31
2023-03-29T09:13:46.081Z,98620.72
2023-03-29T09:14:52.208Z,98624.81
2023-03-29T09:16:05.715Z,98625.13
2023-03-29T09:17:19.709Z,98617.00
2023-03-29T09:18:33.432Z,98613.88
2023-03-29T09:19:39.295Z,98626.41
2023-03-29T09:21:00.026Z,98618.88
2023-03-29T09:22:09.044Z,98616.06
2023-03-29T09:23:17.610Z,98620.94
2023-03-29T09:24:51.183Z,98619.50
2023-03-29T09:26:07.173Z,98623.25
2023-03-29T09:27:27.476Z,98623.06
2023-03-29T09:28:41.958Z,98619.13
2023-03-29T09:29:52.471Z,98621.47
2023-03-29T09:31:02.335Z,98620.22
2023-03-29T09:32:06.755Z,98618.47
2023-03-29T09:33:08.160Z,98619.53
2023-03-29T09:34:32.950Z,98609.63
2023-03-29T09:35:46.148Z,98615.38
2023-03-29T09:36:53.286Z,98611.44
2023-03-29T09:37:55.756Z,98607.81
2023-03-29T09:38:57.100Z,98606.72
2023-03-29T09:40:10.145Z,98608.00
2023-03-29T09:41:30.453Z,98599.81
2023-03-29T09:42:34.284Z,98594.97
2023-03-29T09:43:37.401Z,98594.47
2023-03-29T09:44:54.042Z,98599.31
2023-03-29T09:46:04.063Z,98589.63
2023-03-29T09:47:11.622Z,98597.47
2023-03-29T09:48:14.920Z,98592.41
2023-03-29T09:49:22.870Z,98590.84
2023-03-29T09:50:31.330Z,98593.84
2023-03-29T09:51:35.905Z,98590.22
2023-03-29T09:52:37.316Z,98585.50
2023-03-29T09:53:47.267Z,98590.81
2023-03-29T09:55:05.040Z,98598.03
2023-03-29T09:56:16.427Z,98590.06
2023-03-29T09:57:25.894Z,98592.09
2023-03-29T09:58:28.602Z,98586.72
2023-03-29T09:59:30.189Z,98593.09
2023-03-29T10:00:31.446Z,98589.13
2023-03-29T10:01:40.375Z,98593.50
2023-03-29T10:02:49.621Z,98594.56
2023-03-29T10:03:52.104Z,98605.22
2023-03-29T10:04:54.011Z,98598.25
2023-03-29T10:05:56.420Z,98601.84
2023-03-29T10:06:58.551Z,98602.34
2023-03-29T10:08:00.874Z,98602.03
2023-03-29T10:09:02.632Z,98602.88
2023-03-29T10:10:09.285Z,98594.22
2023-03-29T10:11:17.667Z,98598.25
2023-03-29T10:12:19.469Z,98599.75
2023-03-29T10:13:22.813Z,98603.38
2023-03-29T10:14:30.141Z,98602.50
2023-03-29T10:15:31.515Z,98596.16
2023-03-29T10:16:40.593Z,98597.53
2023-03-29T10:17:41.935Z,98596.66
2023-03-29T10:18:43.476Z,98587.50
2023-03-29T10:19:52.285Z,98599.09
2023-03-29T10:20:57.944Z,98591.97
2023-03-29T10:22:00.204Z,98598.00
2023-03-29T10:23:01.593Z,98584.44
2023-03-29T10:24:02.863Z,98585.00
2023-03-29T10:25:04.807Z,98589.34
2023-03-29T10:26:10.285Z,98586.59
2023-03-29T10:27:11.614Z,98586.38
2023-03-29T10:28:17.744Z,98596.94
2023-03-29T10:29:19.008Z,98587.28
2023-03-29T10:30:22.154Z,98589.06
2023-03-29T10:31:24.517Z,98584.06
2023-03-29T10:32:32.879Z,98586.56
2023-03-29T10:33:35.430Z,98573.50
2023-03-29T10:34:36.765Z,98571.81
2023-03-29T10:35:39.068Z,98569.72
2023-03-29T10:36:41.372Z,98569.81
2023-03-29T10:37:43.353Z,98568.59
2023-03-29T10:38:44.816Z,98583.50
2023-03-29T10:39:47.379Z,98579.59
2023-03-29T10:40:50.713Z,98583.28
2023-03-29T10:41:51.957Z,98578.94
2023-03-29T10:42:53.177Z,98581.53
2023-03-29T10:43:54.440Z,98576.94
2023-03-29T10:44:59.248Z,98574.94
2023-03-29T10:46:19.748Z,98571.56
2023-03-29T10:47:21.608Z,98565.88
2023-03-29T10:48:28.637Z,98564.66
2023-03-29T10:49:29.880Z,98566.88
2023-03-29T10:50:35.630Z,98566.88
2023-03-29T10:51:36.951Z,98564.75
2023-03-29T10:52:39.789Z,98558.44
2023-03-29T10:53:41.172Z,98561.56
2023-03-29T10:54:42.752Z,98566.22
2023-03-29T10:55:50.017Z,98561.81
2023-03-29T10:56:58.919Z,98564.28
2023-03-29T10:58:00.166Z,98562.38
2023-03-29T10:59:04.158Z,98562.81
2023-03-29T11:00:05.466Z,98558.69
2023-03-29T11:01:11.549Z,98558.25
2023-03-29T11:02:15.669Z,98561.13
2023-03-29T11:03:21.591Z,98553.69
2023-03-29T11:04:23.149Z,98556.47
2023-03-29T11:05:33.636Z,98555.47
2023-03-29T11:06:39.971Z,98554.97
2023-03-29T11:07:41.161Z,98545.28
2023-03-29T11:08:58.165Z,98547.25
2023-03-29T11:10:18.393Z,98545.03
2023-03-29T11:11:28.895Z,98542.25
2023-03-29T11:12:55.445Z,98534.34
2023-03-29T11:14:02.758Z,98539.22
2023-03-29T11:15:16.261Z,98530.16
2023-03-29T11:16:31.771Z,98532.63
2023-03-29T11:17:32.971Z,98534.63
2023-03-29T11:18:43.432Z,98524.25
2023-03-29T11:20:05.196Z,98521.81
2023-03-29T11:21:22.837Z,98520.44
2023-03-29T11:22:30.642Z,98525.13
2023-03-29T11:23:34.635Z,98520.97
2023-03-29T11:24:50.893Z,98522.75
2023-03-29T11:25:57.923Z,98521.38
2023-03-29T11:27:05.168Z,98514.44
2023-03-29T11:28:25.092Z,98521.91
2023-03-29T11:29:52.372Z,98520.78
2023-03-29T11:31:04.494Z,98519.38
2023-03-29T11:32:15.003Z,98521.13
2023-03-29T11:33:21.804Z,98525.34
2023-03-29T11:34:32.611Z,98520.59
2023-03-29T11:35:42.956Z,98513.50
2023-03-29T11:37:02.862Z,98511.06
2023-03-29T11:38:06.855Z,98522.13
2023-03-29T11:39:08.104Z,98521.94
2023-03-29T11:40:12.191Z,98518.47
2023-03-29T11:41:16.305Z,98516.13
2023-03-29T11:42:23.309Z,98511.34
2023-03-29T11:43:27.567Z,98519.66
2023-03-29T11:44:30.207Z,98514.97
2023-03-29T11:45:51.996Z,98513.06
2023-03-29T11:47:00.089Z,98516.78
2023-03-29T11:48:02.410Z,98516.75
2023-03-29T11:49:12.243Z,98502.78
2023-03-29T11:50:22.839Z,98502.78
2023-03-29T11:51:34.671Z,98507.47
2023-03-29T11:52:37.491Z,98505.06
2023-03-29T11:53:45.650Z,98498.06
2023-03-29T11:54:47.017Z,98501.44
2023-03-29T11:55:50.344Z,98506.81
2023-03-29T11:57:01.707Z,98503.06
2023-03-29T11:58:05.796Z,98500.78
2023-03-29T11:59:14.135Z,98503.94
2023-03-29T12:00:39.700Z,98496.94
2023-03-29T12:01:52.333Z,98504.44
2023-03-29T12:03:00.783Z,98505.56
2023-03-29T12:04:06.048Z,98494.41
2023-03-29T12:05:17.752Z,98500.16
2023-03-29T12:06:31.511Z,98492.59
2023-03-29T12:07:36.584Z,98494.09
2023-03-29T12:08:44.525Z,98488.03
2023-03-29T12:09:50.220Z,98486.88
2023-03-29T12:10:56.212Z,98489.56
2023-03-29T12:12:03.499Z,98493.28
2023-03-29T12:13:29.292Z,98498.41
2023-03-29T12:14:43.156Z,98495.09
2023-03-29T12:15:53.788Z,98493.91
2023-03-29T12:17:00.971Z,98497.44
2023-03-29T12:18:06.889Z,98490.69
2023-03-29T12:19:21.086Z,98491.66
2023-03-29T12:20:23.786Z,98488.63
2023-03-29T12:21:27.608Z,98490.88
2023-03-29T12:22:29.144Z,98487.78
2023-03-29T12:23:31.604Z,98487.84
2023-03-29T12:24:34.506Z,98490.88
2023-03-29T12:25:44.812Z,98497.94
2023-03-29T12:27:18.414Z,98498.66
2023-03-29T12:28:38.355Z,98482.22
2023-03-29T12:29:39.597Z,98487.78
2023-03-29T12:30:48.785Z,98488.84
2023-03-29T12:31:59.741Z,98490.13
2023-03-29T12:33:07.821Z,98488.47
2023-03-29T12:34:41.345Z,98480.97
2023-03-29T12:36:18.136Z,98491.59
2023-03-29T12:37:34.269Z,98487.63
2023-03-29T12:38:53.920Z,98493.81
2023-03-29T12:40:15.208Z,98493.94
2023-03-29T12:41:36.576Z,98493.00
2023-03-29T12:43:04.804Z,98490.63
2023-03-29T12:44:26.066Z,98487.97
2023-03-29T12:45:42.067Z,98481.28
2023-03-29T12:46:43.632Z,98497.72
2023-03-29T12:47:45.380Z,98492.88
2023-03-29T12:48:49.390Z,98487.34
2023-03-29T12:49:58.067Z,98494.59
2023-03-29T12:51:00.450Z,98495.56
2023-03-29T12:52:08.145Z,98491.25
2023-03-29T12:53:23.871Z,98490.69
2023-03-29T12:54:28.325Z,98488.19
2023-03-29T12:55:31.443Z,98481.69
2023-03-29T12:56:39.253Z,98483.94
2023-03-29T12:57:41.933Z,98479.94
2023-03-29T12:58:52.029Z,98480.03
2023-03-29T12:59:53.341Z,98468.69
2023-03-29T13:01:17.707Z,98482.06
2023-03-29T13:02:18.958Z,98477.59
2023-03-29T13:03:20.374Z,98480.78
2023-03-29T13:04:21.806Z,98481.34
2023-03-29T13:05:31.392Z,98481.44
2023-03-29T13:06:34.289Z,98473.28